Terminal Aerodrome Forecast
Issued by NWS

Home | Current Version | Previous Version | Text Only | Print | Product List | Glossary On
Versions: 1 2 3 4 5 6 7 8 9 10 11 12
000
FTUS44 KLZK 301130
TAFHRO
TAF
KHRO 301130Z 3012/3112 05003KT P6SM SCT050
     FM301500 09007KT P6SM SCT050
     FM302300 11003KT P6SM SKC=

USA.gov is the U.S. government's official web portal to all federal, state and local government web resources and services.